createdAt,value
2022-08-05T00:00:46.403Z,61.64
2022-08-05T00:06:04.886Z,61.40
2022-08-05T00:11:24.005Z,62.78
2022-08-05T00:16:35.368Z,62.26
2022-08-05T00:21:38.448Z,62.92
2022-08-05T00:26:50.898Z,62.14
2022-08-05T00:32:13.435Z,62.29
2022-08-05T00:37:16.287Z,62.59
2022-08-05T00:42:37.219Z,63.49
2022-08-05T00:47:56.886Z,63.20
2022-08-05T00:52:59.540Z,63.17
2022-08-05T00:58:01.294Z,62.47
2022-08-05T01:03:03.217Z,63.69
2022-08-05T01:08:31.590Z,63.74
2022-08-05T01:13:59.026Z,63.89
2022-08-05T01:19:14.298Z,64.15
2022-08-05T01:24:33.311Z,63.32
2022-08-05T01:29:40.554Z,65.44
2022-08-05T01:34:48.800Z,64.57
2022-08-05T01:39:52.309Z,64.51
2022-08-05T01:45:02.405Z,66.16
2022-08-05T01:50:08.336Z,65.90
2022-08-05T01:55:20.800Z,66.42
2022-08-05T02:00:30.721Z,66.57
2022-08-05T02:05:36.734Z,66.78
2022-08-05T02:10:44.046Z,67.37
2022-08-05T02:15:54.021Z,67.54
2022-08-05T02:21:05.673Z,68.29
2022-08-05T02:26:10.139Z,68.51
2022-08-05T02:31:21.865Z,69.66
2022-08-05T02:36:24.772Z,68.79
2022-08-05T02:41:36.370Z,70.00
2022-08-05T02:47:00.208Z,69.69
2022-08-05T02:52:04.723Z,69.95
2022-08-05T02:58:10.936Z,70.37
2022-08-05T03:02:40.822Z,70.42
2022-08-05T03:08:01.698Z,71.05
2022-08-05T03:13:16.580Z,71.13
2022-08-05T03:18:18.617Z,72.73
2022-08-05T03:23:26.918Z,72.50
2022-08-05T03:28:31.679Z,71.65
2022-08-05T03:33:51.301Z,70.71
2022-08-05T03:38:54.944Z,71.41
2022-08-05T03:44:08.633Z,71.22
2022-08-05T03:49:13.110Z,71.57
2022-08-05T03:56:03.862Z,71.47
2022-08-05T04:00:09.239Z,71.11
2022-08-05T04:05:17.925Z,70.13
2022-08-05T04:10:20.656Z,70.55
2022-08-05T04:15:24.418Z,68.12
2022-08-05T04:20:26.293Z,68.47
2022-08-05T04:25:56.518Z,68.12
2022-08-05T04:30:49.731Z,68.72
2022-08-05T04:36:15.558Z,67.15
2022-08-05T04:41:13.195Z,65.78
2022-08-05T04:46:28.491Z,65.18
2022-08-05T04:51:30.740Z,65.83
2022-08-05T04:56:36.762Z,63.67
2022-08-05T05:02:08.196Z,62.85
2022-08-05T05:07:00.357Z,62.87
2022-08-05T05:12:04.439Z,62.56
2022-08-05T05:17:09.386Z,63.02
2022-08-05T05:22:23.406Z,61.69
2022-08-05T05:27:45.198Z,62.88
2022-08-05T05:32:50.347Z,60.31
2022-08-05T05:37:59.661Z,58.42
2022-08-05T05:43:02.403Z,58.29
2022-08-05T05:48:08.060Z,56.72
2022-08-05T05:53:21.164Z,56.43
2022-08-05T05:58:31.491Z,58.35
2022-08-05T06:03:53.610Z,56.56
2022-08-05T06:08:55.828Z,56.31
2022-08-05T06:13:57.582Z,55.54
2022-08-05T06:19:05.960Z,53.34
2022-08-05T06:24:11.535Z,50.35
2022-08-05T06:29:25.083Z,43.82
2022-08-05T06:34:35.940Z,42.03
2022-08-05T06:39:39.578Z,39.99
2022-08-05T06:44:43.423Z,41.52
2022-08-05T06:50:00.619Z,46.20
2022-08-05T06:55:04.547Z,52.56
2022-08-05T07:00:06.960Z,53.32
2022-08-05T07:05:15.366Z,50.04
2022-08-05T07:10:20.942Z,51.67
2022-08-05T07:16:01.965Z,52.80
2022-08-05T07:21:04.639Z,54.37
2022-08-05T07:26:07.306Z,53.74
2022-08-05T07:31:08.964Z,59.02
2022-08-05T07:36:21.507Z,57.88
2022-08-05T07:42:13.712Z,55.78
2022-08-05T07:46:49.376Z,53.32
2022-08-05T07:51:54.344Z,46.86
2022-08-05T07:57:02.072Z,49.33
2022-08-05T08:02:26.848Z,50.75
2022-08-05T08:07:39.737Z,47.01
2022-08-05T08:12:55.108Z,51.75
2022-08-05T08:18:01.960Z,55.84
2022-08-05T08:23:04.684Z,54.09
2022-08-05T08:28:06.357Z,46.52
2022-08-05T08:33:19.899Z,43.96
2022-08-05T08:38:35.987Z,42.85
2022-08-05T08:45:17.127Z,49.31
2022-08-05T08:50:22.533Z,57.04
2022-08-05T08:54:27.685Z,46.34
2022-08-05T08:59:33.665Z,42.05
2022-08-05T09:04:58.621Z,42.66
2022-08-05T09:09:59.450Z,44.91
2022-08-05T09:15:06.517Z,38.39
2022-08-05T09:20:09.375Z,40.61
2022-08-05T09:25:13.466Z,46.36
2022-08-05T09:30:17.119Z,47.54
2022-08-05T09:35:27.371Z,42.35
2022-08-05T09:40:33.647Z,43.72
2022-08-05T09:46:06.960Z,38.62
2022-08-05T09:51:15.231Z,42.83
2022-08-05T09:56:29.845Z,46.06
2022-08-05T10:01:36.901Z,43.06
2022-08-05T10:06:59.232Z,40.05
2022-08-05T10:12:30.833Z,38.16
2022-08-05T10:17:37.613Z,36.51
2022-08-05T10:22:50.743Z,40.09
2022-08-05T10:28:13.104Z,38.91
2022-08-05T10:33:15.713Z,38.51
2022-08-05T10:38:21.128Z,41.04
2022-08-05T10:43:45.839Z,40.17
2022-08-05T10:49:01.462Z,44.21
2022-08-05T10:54:28.459Z,40.95
2022-08-05T11:00:03.740Z,44.16
2022-08-05T11:04:55.298Z,40.41
2022-08-05T11:10:04.142Z,39.72
2022-08-05T11:16:00.755Z,36.05
2022-08-05T11:20:51.040Z,39.54
2022-08-05T11:26:12.033Z,37.33
2022-08-05T11:31:19.525Z,35.10
2022-08-05T11:36:52.891Z,35.00
2022-08-05T11:42:02.430Z,31.94
2022-08-05T11:47:11.170Z,35.98
2022-08-05T11:52:29.204Z,34.81
2022-08-05T11:58:08.557Z,35.11
2022-08-05T12:02:53.772Z,35.34
2022-08-05T12:08:08.073Z,37.06
2022-08-05T12:13:16.890Z,36.80
2022-08-05T12:18:34.657Z,37.70
2022-08-05T12:23:51.217Z,33.42
2022-08-05T12:28:52.873Z,34.42
2022-08-05T12:33:58.273Z,35.37
2022-08-05T12:39:00.691Z,39.17
2022-08-05T12:44:05.872Z,36.33
2022-08-05T12:49:14.953Z,38.45
2022-08-05T12:54:32.326Z,36.62
2022-08-05T13:00:08.703Z,34.95
2022-08-05T13:05:08.403Z,33.36
2022-08-05T13:10:19.531Z,34.81
2022-08-05T13:15:24.478Z,34.26
2022-08-05T13:20:40.366Z,35.79
2022-08-05T13:25:51.754Z,33.45
2022-08-05T13:31:10.993Z,34.07
2022-08-05T13:36:16.492Z,36.45
2022-08-05T13:41:18.197Z,35.41
2022-08-05T13:46:30.758Z,36.10
2022-08-05T13:51:46.286Z,36.72
2022-08-05T13:56:50.833Z,36.04
2022-08-05T14:02:00.092Z,36.65
2022-08-05T14:07:26.514Z,37.45
2022-08-05T14:12:32.274Z,37.85
2022-08-05T14:17:35.307Z,38.29
2022-08-05T14:22:37.262Z,38.26
2022-08-05T14:27:40.270Z,38.34
2022-08-05T14:32:49.165Z,38.05
2022-08-05T14:37:55.438Z,38.36
2022-08-05T14:42:57.359Z,38.33
2022-08-05T14:48:02.890Z,39.34
2022-08-05T14:53:06.359Z,38.14
2022-08-05T14:58:10.888Z,36.98
2022-08-05T15:03:13.963Z,37.34
2022-08-05T15:08:17.892Z,38.93
2022-08-05T15:13:46.481Z,39.06
2022-08-05T15:18:52.075Z,38.52
2022-08-05T15:23:54.431Z,40.15
2022-08-05T15:28:56.074Z,38.40
2022-08-05T15:34:18.634Z,39.17
2022-08-05T15:40:59.226Z,39.58
2022-08-05T15:44:41.795Z,39.98
2022-08-05T15:49:56.560Z,40.96
2022-08-05T15:55:00.675Z,39.87
2022-08-05T16:00:08.066Z,40.85
2022-08-05T16:05:09.847Z,40.36
2022-08-05T16:10:13.033Z,42.31
2022-08-05T16:15:18.656Z,42.59
2022-08-05T16:20:20.554Z,42.62
2022-08-05T16:25:22.238Z,42.88
2022-08-05T16:30:36.313Z,42.61
2022-08-05T16:35:42.296Z,42.78
2022-08-05T16:40:51.721Z,44.09
2022-08-05T16:46:04.466Z,44.85
2022-08-05T16:51:10.776Z,45.99
2022-08-05T16:56:12.715Z,46.57
2022-08-05T17:01:14.498Z,46.35
2022-08-05T17:06:16.601Z,46.88
2022-08-05T17:11:18.590Z,47.17
2022-08-05T17:16:37.090Z,48.46
2022-08-05T17:21:39.566Z,48.35
2022-08-05T17:26:41.772Z,47.14
2022-08-05T17:31:57.335Z,45.49
2022-08-05T17:37:00.778Z,45.35
2022-08-05T17:42:28.612Z,45.94
2022-08-05T17:47:24.476Z,53.46
2022-08-05T17:52:26.443Z,57.07
2022-08-05T17:57:28.537Z,58.89
2022-08-05T18:02:30.255Z,61.02
2022-08-05T18:07:41.313Z,63.17
2022-08-05T18:12:44.015Z,64.46
2022-08-05T18:17:59.160Z,65.63
2022-08-05T18:23:09.001Z,67.28
2022-08-05T18:28:16.381Z,69.11
2022-08-05T18:33:22.665Z,72.08
2022-08-05T18:38:26.051Z,74.43
2022-08-05T18:43:27.967Z,76.26
2022-08-05T18:48:33.740Z,78.06
2022-08-05T18:53:43.181Z,79.27
2022-08-05T18:58:54.954Z,80.09
2022-08-05T19:04:03.085Z,80.64
2022-08-05T19:09:07.279Z,81.34
2022-08-05T19:14:44.807Z,81.09
2022-08-05T19:19:30.703Z,81.25
2022-08-05T19:24:34.609Z,83.40
2022-08-05T19:29:37.432Z,87.22
2022-08-05T19:34:40.715Z,87.38
2022-08-05T19:39:45.820Z,89.70
2022-08-05T19:44:53.621Z,89.06
2022-08-05T19:50:00.903Z,89.88
2022-08-05T19:55:07.019Z,87.35
2022-08-05T20:00:24.972Z,86.23
2022-08-05T20:05:27.458Z,82.59
2022-08-05T20:10:45.105Z,81.47
2022-08-05T20:15:56.831Z,80.61
2022-08-05T20:21:00.052Z,79.91
2022-08-05T20:26:03.621Z,80.21
2022-08-05T20:31:07.385Z,78.73
2022-08-05T20:36:10.060Z,77.04
2022-08-05T20:41:23.725Z,76.67
2022-08-05T20:46:28.329Z,76.11
2022-08-05T20:51:29.983Z,77.06
2022-08-05T20:56:42.323Z,75.36
2022-08-05T21:01:45.010Z,77.05
2022-08-05T21:06:46.805Z,76.83
2022-08-05T21:12:06.884Z,75.76
2022-08-05T21:17:10.554Z,76.07
2022-08-05T21:22:12.213Z,75.82
2022-08-05T21:27:16.636Z,75.46
2022-08-05T21:32:20.109Z,74.81
2022-08-05T21:37:22.051Z,75.23
2022-08-05T21:42:41.099Z,74.83
2022-08-05T21:47:56.572Z,71.60
2022-08-05T21:53:04.728Z,69.78
2022-08-05T21:58:19.526Z,72.41
2022-08-05T22:03:48.494Z,71.07
2022-08-05T22:08:42.982Z,68.67
2022-08-05T22:14:06.627Z,68.13
2022-08-05T22:19:56.374Z,68.63
2022-08-05T22:24:52.470Z,67.90
2022-08-05T22:29:55.166Z,68.53
2022-08-05T22:34:56.851Z,68.60
2022-08-05T22:39:58.661Z,68.30
2022-08-05T22:45:00.570Z,68.95
2022-08-05T22:50:20.522Z,73.63
2022-08-05T22:55:24.691Z,78.03
2022-08-05T23:00:28.291Z,81.98
2022-08-05T23:05:35.894Z,82.95
2022-08-05T23:10:38.190Z,84.87
2022-08-05T23:15:40.633Z,85.72
2022-08-05T23:20:43.189Z,84.24
2022-08-05T23:25:53.571Z,83.43
2022-08-05T23:31:02.293Z,83.51
2022-08-05T23:36:17.664Z,85.55
2022-08-05T23:41:19.553Z,84.35
2022-08-05T23:46:22.206Z,83.88
2022-08-05T23:51:23.975Z,83.30
2022-08-05T23:56:27.391Z,84.58
